createdAt,value
2022-09-28T00:19:43.879Z,3.27
2022-09-28T00:49:46.634Z,4.30
2022-09-28T01:19:50.786Z,3.37
2022-09-28T01:49:53.922Z,4.10
2022-09-28T02:19:58.032Z,3.80
2022-09-28T02:50:00.938Z,4.97
2022-09-28T03:20:04.742Z,4.10
2022-09-28T03:50:07.502Z,3.77
2022-09-28T04:20:10.973Z,5.37
2022-09-28T04:50:13.738Z,5.00
2022-09-28T05:20:18.281Z,5.57
2022-09-28T05:50:21.164Z,8.60
2022-09-28T06:20:24.585Z,5.47
2022-09-28T06:50:27.583Z,4.13
2022-09-28T07:20:32.475Z,4.17
2022-09-28T07:50:36.505Z,3.50
2022-09-28T08:20:40.511Z,3.57
2022-09-28T08:50:43.289Z,2.93
2022-09-28T09:20:47.504Z,2.70
2022-09-28T09:50:50.326Z,3.10
2022-09-28T10:20:53.808Z,3.70
2022-09-28T10:50:56.963Z,2.97
2022-09-28T11:21:00.511Z,3.30
2022-09-28T11:51:03.788Z,2.20
2022-09-28T12:21:07.330Z,2.60
2022-09-28T12:51:10.471Z,2.47
2022-09-28T13:21:14.781Z,3.33
2022-09-28T13:51:17.580Z,2.07
2022-09-28T14:21:21.026Z,1.60
2022-09-28T14:51:24.116Z,3.07
2022-09-28T15:21:28.204Z,3.40
2022-09-28T15:51:31.122Z,2.50
2022-09-28T16:21:35.078Z,2.00
2022-09-28T16:51:38.007Z,3.70
2022-09-28T17:21:42.161Z,6.03
2022-09-28T17:51:45.119Z,4.67
2022-09-28T18:21:49.330Z,5.47
2022-09-28T18:51:52.067Z,6.87
2022-09-28T19:21:56.148Z,7.87
2022-09-28T19:52:15.252Z,9.30
2022-09-28T20:22:19.625Z,7.13
2022-09-28T20:52:22.513Z,9.10
2022-09-28T21:22:26.567Z,7.93
2022-09-28T21:52:29.399Z,6.50
2022-09-28T22:22:32.353Z,6.77
2022-09-28T22:52:36.455Z,8.55
2022-09-28T23:22:39.983Z,10.73
2022-09-28T23:52:43.291Z,9.23
